Details for Jet2 at LEAL




Go Back


Latest METAR
Local Time

LEAL 221730Z 16004KT 080V240 9999 FEW006 22/15 Q1014 NOSIG

22/05/2018, 19:57:08

Description
Results
Jet2 Logo
Number of Pilots based at LEAL
0 Pilots Based here
Number of Jet2 Flights Departed from LEAL
0 Flights Departed
Number of Jet2 Flights Arrived at LEAL
0 Flights Arrived
Number of Jet2 Schedules Departing from LEAL
33 Schedules
Number of Jet2 Schedules Arriving at LEAL
32 Schedules
Number of Jet2 Schedules Departing from LEAL availible today
5 Schedules Today
Number of Jet2 Schedules Arriving at LEAL availible today
5 Schedules Today
Average Landing Rate at LEAL
-245 fpm
Jet2 Average Landing Rate at LEAL
0 fpm
Total Fuel Purchased at LEAL by Jet2
0.00 kgs / 0.00 lbs

Pilots Based at LEAL


Pilot ID
Pilot Name
Pilot Rank
No. of Flights
No. of Flying Hours
There are no pilots assigned to this hub!   Will you be the first?
Content